createdAt,value
2019-02-22T00:00:35.074Z,34.65
2019-02-22T00:03:04.379Z,35.70
2019-02-22T00:05:33.180Z,34.23
2019-02-22T00:08:01.946Z,32.40
2019-02-22T00:10:30.766Z,34.78
2019-02-22T00:12:59.549Z,32.90
2019-02-22T00:15:28.334Z,28.15
2019-02-22T00:17:57.089Z,29.40
2019-02-22T00:20:25.840Z,25.35
2019-02-22T00:22:54.581Z,27.30
2019-02-22T00:25:23.337Z,24.65
2019-02-22T00:27:52.121Z,23.57
2019-02-22T00:30:21.628Z,22.35
2019-02-22T00:32:50.429Z,23.57
2019-02-22T00:35:19.220Z,22.40
2019-02-22T00:37:48.066Z,22.67
2019-02-22T00:40:17.106Z,21.90
2019-02-22T00:42:45.925Z,23.65
2019-02-22T00:45:14.705Z,21.50
2019-02-22T00:47:43.491Z,22.30
2019-02-22T00:50:12.328Z,21.68
2019-02-22T00:52:41.178Z,21.68
2019-02-22T00:55:10.030Z,17.55
2019-02-22T00:57:38.821Z,18.32
2019-02-22T01:00:09.858Z,17.80
2019-02-22T01:02:38.652Z,14.20
2019-02-22T01:05:07.739Z,16.37
2019-02-22T01:07:36.560Z,16.37
2019-02-22T01:10:06.041Z,15.98
2019-02-22T01:12:34.793Z,18.12
2019-02-22T01:15:04.103Z,16.15
2019-02-22T01:17:33.152Z,15.58
2019-02-22T01:20:01.913Z,14.75
2019-02-22T01:22:30.741Z,15.55
2019-02-22T01:24:59.516Z,16.12
2019-02-22T01:27:28.355Z,13.00
2019-02-22T01:29:57.196Z,15.50
2019-02-22T01:32:25.934Z,15.60
2019-02-22T01:34:54.724Z,17.62
2019-02-22T01:37:23.585Z,15.13
2019-02-22T01:39:52.315Z,14.07
2019-02-22T01:42:21.350Z,16.12
2019-02-22T01:44:50.186Z,13.68
2019-02-22T01:47:18.957Z,17.02
2019-02-22T01:49:47.697Z,12.75
2019-02-22T01:52:16.499Z,14.25
2019-02-22T01:54:45.337Z,14.90
2019-02-22T01:57:14.148Z,10.98
2019-02-22T01:59:43.151Z,9.88
2019-02-22T02:02:11.930Z,11.95
2019-02-22T02:04:41.021Z,10.48
2019-02-22T02:07:09.814Z,8.53
2019-02-22T02:09:38.663Z,9.98
2019-02-22T02:12:07.411Z,11.60
2019-02-22T02:14:36.144Z,9.88
2019-02-22T02:17:05.682Z,11.43
2019-02-22T02:19:34.529Z,10.55
2019-02-22T02:22:03.306Z,10.60
2019-02-22T02:24:32.036Z,13.10
2019-02-22T02:27:01.095Z,10.30
2019-02-22T02:29:29.855Z,10.20
2019-02-22T02:31:58.666Z,10.80
2019-02-22T02:34:27.470Z,9.45
2019-02-22T02:36:56.261Z,10.72
2019-02-22T02:39:25.066Z,9.40
2019-02-22T02:41:53.884Z,7.50
2019-02-22T02:44:22.645Z,9.15
2019-02-22T02:46:51.377Z,7.17
2019-02-22T02:49:20.218Z,7.83
2019-02-22T02:51:49.045Z,6.92
2019-02-22T02:54:18.086Z,7.30
2019-02-22T02:56:46.805Z,7.40
2019-02-22T02:59:15.566Z,8.88
2019-02-22T03:01:44.376Z,8.05
2019-02-22T03:04:13.146Z,7.25
2019-02-22T03:06:43.557Z,5.37
2019-02-22T03:09:12.363Z,6.35
2019-02-22T03:11:41.140Z,5.80
2019-02-22T03:14:09.942Z,8.35
2019-02-22T03:16:38.743Z,7.85
2019-02-22T03:19:07.468Z,7.97
2019-02-22T03:21:36.219Z,8.63
2019-02-22T03:24:05.049Z,7.15
2019-02-22T03:26:33.793Z,6.75
2019-02-22T03:29:02.680Z,8.08
2019-02-22T03:31:31.753Z,6.22
2019-02-22T03:34:01.013Z,7.40
2019-02-22T03:36:29.830Z,6.87
2019-02-22T03:38:58.671Z,7.55
2019-02-22T03:41:33.036Z,6.65
2019-02-22T03:43:57.940Z,6.25
2019-02-22T03:46:26.713Z,8.68
2019-02-22T03:48:55.555Z,6.70
2019-02-22T03:51:24.426Z,5.20
2019-02-22T03:53:53.946Z,6.05
2019-02-22T03:56:22.787Z,5.58
2019-02-22T03:58:51.551Z,9.20
2019-02-22T04:01:20.470Z,4.55
2019-02-22T04:03:49.325Z,4.15
2019-02-22T04:06:18.071Z,4.85
2019-02-22T04:08:46.825Z,4.10
2019-02-22T04:11:15.667Z,4.30
2019-02-22T04:13:44.453Z,6.15
2019-02-22T04:16:13.230Z,4.83
2019-02-22T04:18:42.012Z,6.80
2019-02-22T04:21:10.736Z,4.65
2019-02-22T04:23:39.566Z,7.00
2019-02-22T04:26:08.447Z,6.80
2019-02-22T04:28:37.193Z,7.90
2019-02-22T04:31:05.961Z,9.98
2019-02-22T04:33:34.747Z,8.95
2019-02-22T04:36:03.515Z,11.97
2019-02-22T04:38:32.373Z,10.93
2019-02-22T04:41:01.207Z,11.40
2019-02-22T04:43:30.049Z,12.07
2019-02-22T04:45:59.054Z,14.80
2019-02-22T04:48:27.817Z,11.83
2019-02-22T04:50:56.604Z,14.18
2019-02-22T04:53:25.428Z,12.73
2019-02-22T04:55:54.254Z,13.70
2019-02-22T04:58:23.003Z,13.65
2019-02-22T05:00:51.757Z,11.35
2019-02-22T05:03:20.560Z,11.80
2019-02-22T05:05:49.570Z,10.93
2019-02-22T05:08:18.373Z,11.68
2019-02-22T05:10:47.218Z,15.43
2019-02-22T05:13:16.072Z,14.33
2019-02-22T05:15:44.929Z,24.90
2019-02-22T05:18:13.801Z,25.17
2019-02-22T05:20:42.583Z,25.55
2019-02-22T05:23:11.460Z,22.70
2019-02-22T05:25:40.203Z,24.00
2019-02-22T05:28:09.064Z,21.40
2019-02-22T05:30:37.809Z,24.07
2019-02-22T05:33:06.584Z,29.65
2019-02-22T05:35:35.469Z,36.25
2019-02-22T05:38:04.254Z,43.23
2019-02-22T05:40:33.064Z,36.30
2019-02-22T05:43:01.810Z,28.77
2019-02-22T05:45:30.578Z,33.05
2019-02-22T05:47:59.405Z,32.50
2019-02-22T05:50:28.241Z,35.40
2019-02-22T05:52:57.073Z,28.77
2019-02-22T05:55:26.083Z,37.60
2019-02-22T05:57:54.987Z,29.07
2019-02-22T06:00:23.779Z,28.50
2019-02-22T06:02:52.550Z,22.58
2019-02-22T06:05:21.321Z,28.77
2019-02-22T06:07:50.173Z,28.45
2019-02-22T06:10:19.024Z,31.10
2019-02-22T06:12:47.848Z,29.65
2019-02-22T06:15:16.613Z,29.48
2019-02-22T06:17:45.382Z,24.80
2019-02-22T06:20:14.678Z,26.87
2019-02-22T06:22:43.760Z,31.20
2019-02-22T06:25:12.587Z,28.80
2019-02-22T06:27:41.440Z,21.15
2019-02-22T06:30:10.845Z,17.25
2019-02-22T06:32:42.275Z,15.10
2019-02-22T06:35:10.954Z,18.98
2019-02-22T06:37:39.771Z,12.50
2019-02-22T06:40:09.370Z,11.00
2019-02-22T06:42:45.290Z,12.45
2019-02-22T06:45:09.341Z,11.18
2019-02-22T06:47:38.091Z,10.43
2019-02-22T06:50:08.398Z,10.32
2019-02-22T06:52:37.317Z,10.45
2019-02-22T06:55:06.506Z,8.55
2019-02-22T06:57:35.330Z,7.70
2019-02-22T07:00:06.718Z,7.87
2019-02-22T07:02:35.480Z,10.63
2019-02-22T07:05:05.645Z,10.30
2019-02-22T07:07:34.726Z,5.80
2019-02-22T07:10:03.860Z,10.98
2019-02-22T07:12:39.941Z,8.40
2019-02-22T07:15:09.055Z,8.45
2019-02-22T07:17:37.968Z,10.30
2019-02-22T07:20:09.339Z,6.50
2019-02-22T07:22:38.157Z,6.58
2019-02-22T07:25:09.828Z,7.67
2019-02-22T07:27:38.602Z,5.47
2019-02-22T07:30:11.531Z,7.58
2019-02-22T07:32:40.417Z,5.92
2019-02-22T07:35:09.914Z,7.78
2019-02-22T07:37:38.818Z,5.58
2019-02-22T07:40:09.364Z,4.30
2019-02-22T07:42:38.133Z,4.03
2019-02-22T07:45:09.746Z,5.78
2019-02-22T07:47:41.388Z,5.35
2019-02-22T07:50:10.745Z,6.78
2019-02-22T07:52:39.507Z,5.10
2019-02-22T07:55:09.546Z,6.05
2019-02-22T07:57:40.126Z,4.58
2019-02-22T08:00:12.440Z,6.20
2019-02-22T08:02:41.316Z,3.40
2019-02-22T08:05:10.278Z,3.90
2019-02-22T08:07:39.119Z,4.35
2019-02-22T08:10:08.183Z,4.40
2019-02-22T08:12:37.048Z,4.60
2019-02-22T08:15:07.777Z,4.53
2019-02-22T08:17:36.568Z,6.97
2019-02-22T08:20:08.137Z,7.12
2019-02-22T08:22:38.443Z,3.95
2019-02-22T08:25:07.826Z,4.37
2019-02-22T08:27:36.894Z,6.35
2019-02-22T08:30:09.037Z,6.12
2019-02-22T08:32:37.873Z,3.92
2019-02-22T08:35:10.670Z,5.65
2019-02-22T08:37:39.489Z,5.67
2019-02-22T08:40:10.288Z,3.70
2019-02-22T08:42:39.096Z,3.67
2019-02-22T08:45:09.758Z,4.75
2019-02-22T08:47:38.720Z,6.42
2019-02-22T08:50:08.166Z,6.47
2019-02-22T08:52:37.185Z,3.87
2019-02-22T08:55:06.689Z,4.00
2019-02-22T08:57:35.439Z,4.85
2019-02-22T09:00:06.049Z,4.65
2019-02-22T09:02:34.862Z,3.80
2019-02-22T09:05:03.797Z,5.10
2019-02-22T09:07:32.653Z,3.17
2019-02-22T09:10:01.474Z,2.72
2019-02-22T09:12:30.263Z,2.30
2019-02-22T09:14:59.074Z,3.90
2019-02-22T09:17:27.903Z,6.72
2019-02-22T09:19:56.650Z,6.37
2019-02-22T09:22:25.519Z,3.47
2019-02-22T09:24:54.345Z,3.40
2019-02-22T09:27:23.106Z,3.50
2019-02-22T09:29:58.834Z,4.42
2019-02-22T09:32:22.505Z,4.20
2019-02-22T09:34:51.281Z,5.40
2019-02-22T09:37:20.092Z,5.97
2019-02-22T09:39:49.064Z,2.95
2019-02-22T09:42:17.848Z,3.37
2019-02-22T09:44:46.594Z,6.70
2019-02-22T09:47:15.622Z,5.97
2019-02-22T09:49:44.371Z,10.60
2019-02-22T09:52:13.151Z,3.67
2019-02-22T09:54:41.966Z,2.90
2019-02-22T09:57:10.754Z,4.22
2019-02-22T09:59:39.557Z,2.87
2019-02-22T10:02:08.357Z,3.45
2019-02-22T10:04:37.158Z,2.83
2019-02-22T10:07:05.914Z,4.75
2019-02-22T10:09:34.717Z,5.37
2019-02-22T10:12:03.448Z,3.75
2019-02-22T10:14:32.239Z,1.82
2019-02-22T10:17:01.024Z,3.10
2019-02-22T10:19:29.799Z,3.77
2019-02-22T10:21:58.614Z,4.22
2019-02-22T10:24:27.435Z,4.70
2019-02-22T10:26:56.230Z,4.03
2019-02-22T10:29:25.040Z,4.05
2019-02-22T10:31:53.777Z,2.98
2019-02-22T10:34:22.539Z,3.20
2019-02-22T10:36:51.325Z,2.30
2019-02-22T10:39:20.086Z,5.97
2019-02-22T10:41:48.964Z,4.65
2019-02-22T10:44:18.127Z,4.75
2019-02-22T10:46:47.087Z,5.28
2019-02-22T10:49:15.815Z,8.23
2019-02-22T10:51:44.624Z,5.22
2019-02-22T10:54:13.387Z,4.67
2019-02-22T10:56:42.150Z,2.75
2019-02-22T10:59:10.951Z,4.58
2019-02-22T11:01:39.851Z,3.50
2019-02-22T11:04:08.715Z,4.17
2019-02-22T11:06:37.529Z,3.30
2019-02-22T11:09:07.159Z,4.05
2019-02-22T11:11:35.904Z,4.45
2019-02-22T11:14:06.625Z,3.35
2019-02-22T11:16:35.433Z,4.55
2019-02-22T11:19:04.165Z,6.12
2019-02-22T11:21:32.935Z,2.58
2019-02-22T11:24:01.706Z,3.95
2019-02-22T11:26:30.490Z,3.35
2019-02-22T11:28:59.259Z,5.65
2019-02-22T11:31:28.261Z,5.42
2019-02-22T11:33:57.106Z,4.72
2019-02-22T11:36:25.877Z,4.42
2019-02-22T11:38:54.675Z,3.62
2019-02-22T11:41:23.420Z,4.83
2019-02-22T11:43:52.538Z,4.70
2019-02-22T11:46:21.298Z,4.67
2019-02-22T11:48:50.027Z,3.25
2019-02-22T11:51:18.787Z,4.45
2019-02-22T11:53:47.756Z,5.42
2019-02-22T11:56:16.616Z,5.08
2019-02-22T11:58:45.499Z,2.50
2019-02-22T12:01:14.696Z,6.42
2019-02-22T12:03:45.231Z,4.40
2019-02-22T12:06:13.775Z,3.17
2019-02-22T12:08:42.329Z,7.10
2019-02-22T12:11:10.809Z,3.60
2019-02-22T12:13:39.285Z,3.87
2019-02-22T12:16:07.801Z,4.53
2019-02-22T12:18:36.690Z,5.10
2019-02-22T12:21:05.247Z,4.23
2019-02-22T12:23:36.406Z,5.60
2019-02-22T12:26:05.036Z,3.17
2019-02-22T12:28:33.486Z,5.47
2019-02-22T12:31:02.065Z,3.90
2019-02-22T12:33:30.572Z,3.60
2019-02-22T12:35:59.155Z,4.93
2019-02-22T12:38:28.341Z,2.67
2019-02-22T12:40:56.955Z,5.17
2019-02-22T12:43:25.538Z,3.50
2019-02-22T12:45:54.016Z,3.23
2019-02-22T12:48:22.480Z,4.83
2019-02-22T12:50:50.974Z,5.20
2019-02-22T12:53:19.678Z,4.60
2019-02-22T12:55:48.170Z,5.97
2019-02-22T12:58:16.712Z,4.27
2019-02-22T13:00:45.510Z,2.10
2019-02-22T13:03:14.098Z,2.47
2019-02-22T13:05:42.585Z,3.60
2019-02-22T13:08:11.208Z,5.47
2019-02-22T13:10:39.648Z,3.20
2019-02-22T13:13:08.152Z,3.63
2019-02-22T13:15:36.639Z,5.63
2019-02-22T13:18:05.089Z,4.30
2019-02-22T13:20:33.591Z,3.93
2019-02-22T13:23:02.279Z,3.83
2019-02-22T13:25:30.776Z,6.37
2019-02-22T13:27:59.323Z,4.43
2019-02-22T13:30:27.819Z,6.27
2019-02-22T13:32:56.354Z,4.73
2019-02-22T13:35:24.879Z,4.43
2019-02-22T13:37:53.449Z,3.30
2019-02-22T13:40:21.964Z,3.20
2019-02-22T13:42:50.534Z,3.83
2019-02-22T13:45:26.693Z,2.80
2019-02-22T13:47:49.168Z,2.90
2019-02-22T13:50:18.474Z,3.23
2019-02-22T13:52:48.700Z,4.93
2019-02-22T13:55:17.230Z,3.77
2019-02-22T13:57:45.786Z,5.73
2019-02-22T14:00:18.321Z,4.50
2019-02-22T14:02:46.842Z,4.60
2019-02-22T14:05:15.389Z,3.50
2019-02-22T14:07:54.912Z,5.70
2019-02-22T14:10:24.404Z,3.93
2019-02-22T14:12:52.940Z,3.73
2019-02-22T14:15:21.963Z,4.17
2019-02-22T14:17:50.521Z,4.50
2019-02-22T14:20:19.079Z,3.40
2019-02-22T14:22:49.365Z,5.37
2019-02-22T14:25:17.847Z,4.77
2019-02-22T14:27:46.316Z,5.90
2019-02-22T14:30:15.917Z,4.53
2019-02-22T14:32:44.418Z,3.57
2019-02-22T14:35:13.078Z,3.17
2019-02-22T14:37:41.701Z,5.00
2019-02-22T14:40:13.761Z,5.30
2019-02-22T14:42:42.210Z,4.57
2019-02-22T14:45:11.960Z,5.63
2019-02-22T14:47:40.531Z,5.30
2019-02-22T14:50:19.129Z,7.17
2019-02-22T14:52:47.632Z,4.17
2019-02-22T14:55:16.186Z,4.33
2019-02-22T14:57:45.342Z,6.93
2019-02-22T15:00:16.400Z,4.63
2019-02-22T15:02:44.931Z,4.33
2019-02-22T15:05:14.684Z,4.50
2019-02-22T15:07:43.195Z,4.30
2019-02-22T15:10:12.195Z,6.05
2019-02-22T15:12:40.984Z,3.52
2019-02-22T15:15:12.400Z,7.28
2019-02-22T15:17:57.400Z,4.50
2019-02-22T15:20:26.146Z,5.45
2019-02-22T15:22:54.914Z,3.50
2019-02-22T15:25:23.758Z,4.85
2019-02-22T15:27:52.475Z,6.60
2019-02-22T15:30:21.203Z,4.80
2019-02-22T15:32:49.983Z,3.30
2019-02-22T15:35:19.029Z,3.47
2019-02-22T15:37:47.794Z,4.65
2019-02-22T15:40:16.623Z,5.35
2019-02-22T15:42:45.478Z,3.50
2019-02-22T15:45:18.487Z,5.08
2019-02-22T15:47:48.809Z,5.53
2019-02-22T15:50:18.766Z,6.00
2019-02-22T15:52:48.851Z,4.30
2019-02-22T15:55:17.579Z,6.25
2019-02-22T15:57:46.664Z,4.25
2019-02-22T16:00:21.741Z,4.53
2019-02-22T16:02:50.464Z,5.83
2019-02-22T16:05:26.846Z,6.00
2019-02-22T16:07:55.636Z,4.37
2019-02-22T16:10:24.388Z,6.90
2019-02-22T16:12:53.130Z,5.08
2019-02-22T16:15:21.864Z,3.98
2019-02-22T16:17:50.665Z,9.05
2019-02-22T16:20:19.506Z,8.73
2019-02-22T16:22:51.240Z,6.33
2019-02-22T16:25:20.119Z,6.08
2019-02-22T16:27:49.159Z,5.33
2019-02-22T16:30:19.839Z,5.60
2019-02-22T16:32:48.553Z,4.40
2019-02-22T16:35:17.292Z,6.05
2019-02-22T16:37:46.040Z,7.80
2019-02-22T16:40:14.823Z,7.03
2019-02-22T16:42:43.894Z,6.87
2019-02-22T16:45:13.619Z,7.87
2019-02-22T16:47:42.378Z,5.75
2019-02-22T16:50:13.340Z,10.80
2019-02-22T16:52:44.393Z,5.60
2019-02-22T16:55:15.142Z,7.65
2019-02-22T16:57:43.876Z,6.62
2019-02-22T17:00:14.512Z,6.20
2019-02-22T17:02:43.284Z,11.73
2019-02-22T17:05:16.376Z,10.40
2019-02-22T17:07:45.128Z,8.48
2019-02-22T17:10:14.157Z,7.00
2019-02-22T17:12:42.920Z,6.67
2019-02-22T17:15:13.892Z,8.53
2019-02-22T17:17:42.874Z,14.35
2019-02-22T17:20:15.182Z,9.60
2019-02-22T17:22:43.976Z,10.35
2019-02-22T17:25:15.757Z,9.35
2019-02-22T17:27:44.525Z,13.05
2019-02-22T17:30:15.537Z,10.45
2019-02-22T17:32:44.364Z,6.90
2019-02-22T17:35:13.121Z,12.33
2019-02-22T17:37:41.877Z,7.97
2019-02-22T17:40:15.996Z,5.12
2019-02-22T17:42:44.782Z,5.30
2019-02-22T17:45:13.877Z,8.03
2019-02-22T17:47:42.621Z,5.72
2019-02-22T17:50:11.622Z,7.95
2019-02-22T17:52:40.489Z,5.37
2019-02-22T17:55:10.195Z,9.13
2019-02-22T17:57:38.924Z,6.92
2019-02-22T18:00:12.274Z,9.78
2019-02-22T18:02:41.058Z,8.68
2019-02-22T18:05:09.789Z,10.50
2019-02-22T18:07:38.548Z,9.25
2019-02-22T18:10:09.153Z,15.70
2019-02-22T18:12:37.913Z,9.93
2019-02-22T18:15:11.120Z,9.53
2019-02-22T18:17:41.048Z,9.53
2019-02-22T18:20:09.838Z,8.63
2019-02-22T18:22:38.701Z,9.83
2019-02-22T18:25:08.745Z,16.02
2019-02-22T18:27:37.477Z,11.73
2019-02-22T18:30:20.030Z,15.03
2019-02-22T18:32:48.826Z,10.55
2019-02-22T18:35:18.276Z,9.88
2019-02-22T18:37:47.257Z,10.35
2019-02-22T18:40:17.992Z,10.20
2019-02-22T18:42:46.792Z,8.98
2019-02-22T18:45:15.568Z,10.75
2019-02-22T18:47:44.335Z,11.35
2019-02-22T18:50:13.187Z,22.25
2019-02-22T18:52:42.015Z,10.65
2019-02-22T18:55:11.209Z,9.00
2019-02-22T18:57:40.082Z,139.57
2019-02-22T19:00:18.223Z,178.55
2019-02-22T19:02:47.045Z,14.40
2019-02-22T19:05:15.797Z,9.55
2019-02-22T19:07:44.554Z,16.62
2019-02-22T19:10:15.138Z,13.83
2019-02-22T19:12:44.108Z,14.30
2019-02-22T19:15:13.873Z,13.40
2019-02-22T19:17:42.740Z,12.28
2019-02-22T19:20:13.997Z,10.82
2019-02-22T19:22:43.093Z,13.20
2019-02-22T19:25:11.869Z,10.93
2019-02-22T19:27:40.661Z,18.25
2019-02-22T19:30:14.300Z,12.55
2019-02-22T19:32:43.169Z,12.35
2019-02-22T19:35:11.939Z,12.35
2019-02-22T19:37:40.733Z,11.85
2019-02-22T19:40:12.185Z,10.65
2019-02-22T19:42:40.999Z,10.85
2019-02-22T19:45:11.585Z,10.68
2019-02-22T19:47:42.083Z,12.65
2019-02-22T19:50:12.824Z,12.73
2019-02-22T19:52:41.657Z,11.93
2019-02-22T19:55:12.966Z,15.10
2019-02-22T19:57:41.762Z,14.87
2019-02-22T20:00:13.334Z,14.25
2019-02-22T20:02:42.182Z,15.10
2019-02-22T20:05:11.880Z,15.32
2019-02-22T20:07:40.691Z,15.68
2019-02-22T20:10:17.782Z,13.58
2019-02-22T20:12:42.363Z,12.35
2019-02-22T20:15:13.579Z,11.68
2019-02-22T20:17:53.109Z,13.90
2019-02-22T20:20:15.226Z,11.35
2019-02-22T20:22:44.097Z,11.30
2019-02-22T20:25:12.922Z,11.28
2019-02-22T20:27:41.710Z,13.85
2019-02-22T20:30:17.553Z,15.60
2019-02-22T20:32:46.680Z,17.50
2019-02-22T20:35:21.993Z,14.47
2019-02-22T20:37:52.965Z,12.98
2019-02-22T20:40:21.554Z,10.63
2019-02-22T20:42:50.365Z,14.55
2019-02-22T20:45:19.423Z,16.15
2019-02-22T20:47:48.219Z,12.58
2019-02-22T20:50:17.042Z,12.37
2019-02-22T20:52:45.843Z,11.50
2019-02-22T20:55:14.630Z,10.70
2019-02-22T20:57:43.415Z,13.00
2019-02-22T21:00:20.828Z,12.45
2019-02-22T21:02:49.677Z,10.63
2019-02-22T21:05:18.514Z,10.55
2019-02-22T21:07:47.326Z,13.32
2019-02-22T21:10:20.748Z,12.73
2019-02-22T21:12:49.532Z,15.80
2019-02-22T21:15:18.280Z,12.00
2019-02-22T21:17:47.066Z,9.28
2019-02-22T21:20:21.230Z,10.60
2019-02-22T21:22:50.782Z,13.78
2019-02-22T21:25:19.633Z,11.40
2019-02-22T21:27:48.434Z,9.25
2019-02-22T21:30:19.815Z,9.35
2019-02-22T21:32:48.716Z,10.10
2019-02-22T21:35:17.854Z,8.38
2019-02-22T21:37:46.825Z,8.00
2019-02-22T21:40:15.597Z,11.12
2019-02-22T21:42:44.732Z,10.15
2019-02-22T21:45:15.524Z,9.20
2019-02-22T21:47:54.206Z,7.95
2019-02-22T21:50:15.739Z,8.25
2019-02-22T21:52:44.671Z,11.68
2019-02-22T21:55:16.477Z,9.30
2019-02-22T21:57:45.269Z,7.83
2019-02-22T22:00:21.319Z,8.85
2019-02-22T22:02:50.089Z,9.15
2019-02-22T22:05:18.936Z,8.98
2019-02-22T22:07:47.796Z,10.80
2019-02-22T22:10:16.816Z,9.60
2019-02-22T22:12:45.838Z,8.13
2019-02-22T22:15:15.613Z,10.40
2019-02-22T22:17:44.347Z,11.90
2019-02-22T22:20:13.870Z,12.88
2019-02-22T22:22:42.714Z,10.30
2019-02-22T22:25:15.263Z,14.25
2019-02-22T22:27:44.037Z,12.55
2019-02-22T22:30:13.817Z,10.98
2019-02-22T22:32:42.548Z,11.28
2019-02-22T22:35:12.805Z,13.55
2019-02-22T22:37:41.638Z,10.93
2019-02-22T22:40:10.963Z,11.97
2019-02-22T22:42:40.105Z,9.93
2019-02-22T22:45:11.559Z,10.72
2019-02-22T22:47:40.338Z,14.28
2019-02-22T22:50:11.608Z,11.85
2019-02-22T22:52:40.390Z,11.50
2019-02-22T22:55:10.365Z,10.25
2019-02-22T22:57:39.235Z,12.28
2019-02-22T23:00:51.733Z,11.78
2019-02-22T23:03:21.172Z,11.88
2019-02-22T23:05:49.919Z,13.80
2019-02-22T23:08:18.671Z,9.33
2019-02-22T23:10:47.490Z,12.13
2019-02-22T23:13:16.267Z,9.58
2019-02-22T23:15:45.023Z,10.25
2019-02-22T23:18:13.870Z,12.70
2019-02-22T23:20:42.645Z,12.73
2019-02-22T23:23:11.426Z,12.65
2019-02-22T23:25:40.293Z,11.40
2019-02-22T23:28:09.067Z,14.45
2019-02-22T23:30:37.846Z,11.40
2019-02-22T23:33:06.728Z,11.30
2019-02-22T23:35:35.580Z,11.55
2019-02-22T23:38:04.315Z,10.23
2019-02-22T23:40:33.056Z,8.98
2019-02-22T23:43:01.841Z,11.80
2019-02-22T23:45:31.125Z,9.13
2019-02-22T23:47:59.940Z,9.63
2019-02-22T23:50:28.786Z,12.00
2019-02-22T23:52:57.560Z,14.38
2019-02-22T23:55:26.359Z,12.03
2019-02-22T23:57:55.199Z,12.70
